Tiempo atmosférico en la estación meteorológica de Valverde del Fresno, Cáceres (498 m.)



Fecha
DESCASC
Temp. máxima en grados centígrados (hora)
DESCASC
Temp. mínima en grados centígrados (hora)
DESCASC
Temp. media en grados centígrados
DESCASC
Racha de viento máxima en m/sg (hora)
DESCASC
Velocidad máxima media en intervalos de 10 minutos(hora)
DESCASC
Precipitaciones diarias en mm
DESCASC
Precipitaciones de 00:00 a 06:00 en mm
DESCASC
Precipitaciones de 06:00 a 12:00 en mm
DESCASC
Precipitaciones de 12:00 a 18:00 en mm
DESCASC
Precipitaciones de 18:00 a 24:00 en mm
DESCASC
19-09-2019 30.3 (16:00) 15.8 (08:40) 23 8.61 (14:30) 4.17 (17:10) 0 0 0 0 0
18-09-2019 30.1 (17:50) 13.5 (08:20) 21.8 6.67 (15:40) 3.33 (16:30) 0 0 0 0 0
17-09-2019 29.7 (14:20) 17.3 (00:00) 23.5 16.11 (18:00) 10 (19:20) 0 0 0 0 0
16-09-2019 27.9 (15:10) 17.9 (00:00) 22.9 8.61 (19:40) 4.17 (18:30) 0 0 0 0 0
15-09-2019 25.3 (14:00) 15.1 (00:00) 20.2 7.5 (13:30) 5 (15:20) 0.4 0 0 0.4 0
14-09-2019 26.8 (12:50) 17.2 (00:00) 22 10.28 (13:50) 6.11 (13:50) 0.8 0 0 0.2 0.6
13-09-2019 29.3 (14:20) 18.9 (00:00) 24.1 12.22 (11:30) 6.94 (11:00) 0 0 0 0 0
12-09-2019 31.5 (17:20) 16.5 (00:00) 24 10.28 (10:00) 7.22 (10:00) 0 0 0 0 0
11-09-2019 26.4 (16:50) 15.5 (00:00) 20.9 16.94 (15:50) 10 (15:50) 0 0 0 0 0
10-09-2019 24 (18:00) 13.4 (08:20) 18.7 13.33 (12:20) 6.67 (14:30) 0 0 0 0 0
09-09-2019 30.2 (15:40) 13.9 (07:50) 22.1 10 (17:20) 5.28 (22:20) 0 0 0 0 0
08-09-2019 31.6 (17:00) 16.7 (00:00) 24.2 12.78 (00:20) 7.5 (00:10) 0 0 0 0 0
07-09-2019 31.3 (17:50) 15.5 (00:00) 23.4 13.61 (23:10) 8.33 (23:50) 0 0 0 0 0
06-09-2019 29.2 (18:10) 14.2 (00:00) 21.7 15.83 (22:30) 8.06 (22:00) 0 0 0 0 0
05-09-2019 30.9 (16:00) 18.7 (00:00) 24.8 15.83 (22:10) 9.72 (22:00) 0 0 0 0 0
04-09-2019 35.7 (17:00) 20.4 (00:00) 28.1 11.94 (15:50) 6.39 (16:00) 0 0 0 0 0
03-09-2019 36 (17:20) 20.1 (00:00) 28.1 17.22 (17:50) 5 (18:40) 0 0 0 0 0
02-09-2019 33.9 (16:40) 20.1 (00:00) 27 12.22 (23:00) 7.5 (23:00) 0 0 0 0 0
01-09-2019 34.2 (15:10) 19.8 (00:00) 27 9.72 (23:10) 5.83 (23:20) 0 0 0 0 0
31-08-2019 35.2 (17:20) 21.5 (00:00) 28.4 8.89 (17:40) 4.72 (19:30) 0 0 0 0 0
30-08-2019 35.8 (16:30) 19 (00:00) 27.4 8.61 (23:30) 4.17 (17:40) 0 0 0 0 0
29-08-2019 34.5 (16:10) 17 (00:00) 25.8 9.17 (16:30) 4.72 (16:10) 0 0 0 0 0
28-08-2019 32.8 (18:10) 17.3 (00:00) 25 7.78 (15:00) 4.17 (13:10) 0 0 0 0 0
27-08-2019 29.8 (19:30) 15.6 (00:00) 22.7 6.67 (15:00) 3.61 (14:30) 0 0 0 0 0
26-08-2019 27.9 (18:00) 16.3 (00:00) 22.1 13.89 (06:00) 8.06 (05:20) 5.4 2.4 3 0 0
25-08-2019 33.4 (15:50) 22.3 (00:00) 27.9 18.06 (23:10) 10.83 (23:10) 0 0 0 0 0
24-08-2019 36.4 (18:10) 21.1 (00:00) 28.8 9.72 (23:00) 5 (22:40) 0 0 0 0 0
23-08-2019 35.5 (19:00) 20.6 (00:00) 28.1 8.33 (12:50) 5 (12:50) 0 0 0 0 0

Gráficas

Temp. máximas Temp. mínimas Temp. medias Precipitaciones Rachas de viento máximas Velocidades máximas media en intervalos de 10 minutos

Datos horarios

Fecha y hora oficial Temperatura (ºC) Velocidad del viento (km/h) Dirección del viento Racha (km/h) Dirección de racha Precipitación (mm) Presión (hPa) Tendencia (hPa) Humedad (%)
2019-09-21 23:00:00 17 9 Oeste 32 Sur 2.4 -- -- 95
2019-09-21 22:00:00 17.7 9 Sur 25 Sudoeste 1.2 -- -- 97
2019-09-21 21:00:00 17.7 2 Sudeste 7 Sudeste 0.8 -- -- 96
2019-09-21 20:00:00 17.8 2 Sudeste 24 Sur 3.6 -- -- 95
2019-09-21 19:00:00 17.8 4 Sur 22 Sudeste 3.6 -- -- 95
2019-09-21 18:00:00 18 6 Sudeste 18 Sudeste 1.8 -- -- 96
2019-09-21 17:00:00 17.7 10 Sudeste 22 Sudeste 1.2 -- -- 96
2019-09-21 16:00:00 16.7 10 Sudeste 23 Sudeste 3.2 -- -- 96
2019-09-21 15:00:00 16.5 9 Sudeste 23 Sudeste 2.6 -- -- 96
2019-09-21 14:00:00 16.3 10 Sudeste 27 Sudeste 1.2 -- -- 96
2019-09-21 13:00:00 16.4 14 Sur 26 Sur 0.4 -- -- 96
2019-09-21 12:00:00 16.3 11 Sur 21 Sudeste 1.2 -- -- 96
2019-09-21 11:00:00 16.1 8 Sudeste 18 Sudeste 2.4 -- -- 95
2019-09-21 10:00:00 15.9 8 Sudeste 19 Sudeste 1 -- -- 95
2019-09-21 09:00:00 15.5 2 Nordeste 7 Sudeste 4 -- -- 94
2019-09-21 08:00:00 15.9 7 Sudeste 13 Sudeste 3 -- -- 92
2019-09-21 07:00:00 16.5 3 Norte 6 Norte 0 -- -- 87
2019-09-21 06:00:00 16.5 4 Norte 7 Nordeste 0 -- -- 86
2019-09-21 05:00:00 17 0 Calma 9 Sudoeste 0 -- -- 80
2019-09-21 04:00:00 17.5 0 Calma 5 Oeste 0 -- -- 74
2019-09-21 03:00:00 17.5 2 Norte 4 Sur 0 -- -- 70
2019-09-21 02:00:00 17.5 0 Calma 6 Norte 0 -- -- 69
2019-09-21 01:00:00 17.2 0 Calma 5 Norte 0 -- -- 68
2019-09-21 00:00:00 17.3 0 Calma 6 Norte 0 -- -- 67
2019-09-20 23:00:00 18.1 5 Norte 8 Norte 0 -- -- 64
2019-09-20 22:00:00 20.1 0 Calma 9 Oeste 0 -- -- 57
2019-09-20 21:00:00 20.2 5 Oeste 24 Sudoeste 0 -- -- 57
2019-09-20 20:00:00 21.8 12 Sudoeste 21 Sudoeste 0 -- -- 55
2019-09-20 19:00:00 23.7 10 Oeste 30 Sudoeste 0 -- -- 50
2019-09-20 18:00:00 22.5 19 Sudoeste 36 Sudoeste 0 -- -- 56
2019-09-20 17:00:00 24.5 15 Sudoeste 29 Sudoeste 0 -- -- 47
2019-09-20 16:00:00 25.6 13 Sudoeste 24 Sur 0 -- -- 43
2019-09-20 15:00:00 25.6 12 Sudeste 61 Sudeste 0 -- -- 44
2019-09-20 14:00:00 24.3 13 Este 26 Sudeste 0 -- -- 49
2019-09-20 13:00:00 24.7 9 Sur 20 Sur 0 -- -- 49
2019-09-20 12:00:00 22 5 Oeste 13 Sudoeste 0 -- -- 58
2019-09-20 11:00:00 19 3 Nordeste 9 Oeste 0 -- -- 67
2019-09-20 10:00:00 17.5 5 Sudoeste 8 Sudoeste 0 -- -- 71
2019-09-20 09:00:00 16.8 3 Sudoeste 8 Norte 0 -- -- 71
2019-09-20 08:00:00 16.6 0 Calma 9 Norte 0 -- -- 71
2019-09-20 07:00:00 17.1 2 Norte 7 Norte 0 -- -- 69
2019-09-20 06:00:00 17.7 3 Norte 5 Norte 0 -- -- 66
2019-09-20 05:00:00 17.8 3 Norte 9 Este 0 -- -- 67
2019-09-20 04:00:00 18.6 3 Nordeste 8 Sudoeste 0 -- -- 62
2019-09-20 03:00:00 19.3 3 Oeste 6 Norte 0 -- -- 60
2019-09-20 02:00:00 19.7 2 Noroeste 5 Nordeste 0 -- -- 58
2019-09-20 01:00:00 20.5 3 Noroeste 11 Norte 0 -- -- 56
2019-09-20 00:00:00 21.2 8 Norte 11 Norte 0 -- -- 52
2019-09-19 23:00:00 21.8 9 Norte 10 Norte 0 -- -- 50
2019-09-19 22:00:00 23.9 0 Calma 9 Sudoeste 0 -- -- 43
2019-09-19 21:00:00 25.5 5 Noroeste 13 Sur 0 -- -- 36
2019-09-19 20:00:00 28.2 8 Sur 18 Sur 0 -- -- 31
2019-09-19 19:00:00 28.9 8 Sur 24 Sudoeste 0 -- -- 33
2019-09-19 18:00:00 29.7 11 Sur 26 Este 0 -- -- 32
2019-09-19 17:00:00 30.1 12 Sudeste 30 Sur 0 -- -- 32
2019-09-19 16:00:00 30.3 11 Sur 27 Sur 0 -- -- 33
2019-09-19 15:00:00 29.8 15 Sur 31 Sudeste 0 -- -- 36
2019-09-19 14:00:00 28.6 10 Este 20 Sur 0 -- -- 38
2019-09-19 13:00:00 27.7 11 Sur 23 Sur 0 -- -- 40
2019-09-19 12:00:00 26.9 4 Norte 12 Sudeste 0 -- -- 42
2019-09-19 11:00:00 23.9 5 Sur 10 Sur 0 -- -- 48
2019-09-19 10:00:00 21.7 0 Calma 5 Norte 0 -- -- 57
2019-09-19 09:00:00 16.3 3 Nordeste 7 Norte 0 -- -- 74
2019-09-19 08:00:00 17.1 0 Calma 5 Norte 0 -- -- 68
2019-09-19 07:00:00 17.5 0 Calma 5 Este 0 -- -- 67
2019-09-19 06:00:00 17.6 0 Calma 7 Norte 0 -- -- 67
2019-09-19 05:00:00 17.7 4 Oeste 8 Sur 0 -- -- 65
2019-09-19 04:00:00 18.7 2 Oeste 9 Norte 0 -- -- 60
2019-09-19 03:00:00 19.7 5 Norte 8 Norte 0 -- -- 57
2019-09-19 02:00:00 20.1 2 Sudeste 10 Norte 0 -- -- 56
2019-09-19 01:00:00 20.8 6 Norte 10 Norte 0 -- -- 54
2019-09-19 00:00:00 21.3 4 Norte 13 Sudoeste 0 -- -- 52
2019-09-18 23:00:00 23.6 6 Norte 9 Norte 0 -- -- 45
2019-09-18 22:00:00 23.6 0 Calma 17 Norte 0 -- -- 47
2019-09-18 21:00:00 24.3 10 Norte 12 Norte 0 -- -- 45
2019-09-18 20:00:00 28.6 5 Sudeste 10 Sur 0 -- -- 33
2019-09-18 19:00:00 29.2 8 Sur 20 Sudeste 0 -- -- 34
2019-09-18 18:00:00 29.9 7 Sur 20 Sur 0 -- -- 33
2019-09-18 17:00:00 29.6 10 Sur 20 Sudeste 0 -- -- 35
2019-09-18 16:00:00 29.3 6 Sur 24 Sur 0 -- -- 37
2019-09-18 15:00:00 29 12 Sur 22 Sudoeste 0 -- -- 36
2019-09-18 14:00:00 28.2 7 Sudeste 23 Sur 0 -- -- 36
2019-09-18 13:00:00 26.4 10 Sur 21 Sudoeste 0 -- -- 38
2019-09-18 12:00:00 24.4 6 Sur 13 Sudoeste 0 -- -- 43
2019-09-18 11:00:00 20.9 4 Sudoeste 8 Sur 0 -- -- 51
2019-09-18 10:00:00 17.5 0 Calma 8 Nordeste 0 -- -- 62
2019-09-18 09:00:00 14.4 4 Nordeste 9 Norte 0 -- -- 71
2019-09-18 08:00:00 14 0 Calma 6 Noroeste 0 -- -- 70
2019-09-18 07:00:00 14.8 2 Sudoeste 6 Norte 0 -- -- 67
2019-09-18 06:00:00 14.2 5 Nordeste 8 Este 0 -- -- 73
2019-09-18 05:00:00 14.8 4 Norte 8 Norte 0 -- -- 70
2019-09-18 04:00:00 16.9 2 Este 12 Norte 0 -- -- 62
2019-09-18 03:00:00 16.3 8 Norte 11 Norte 0 -- -- 68
2019-09-18 02:00:00 17.2 6 Norte 9 Norte 0 -- -- 66
2019-09-18 01:00:00 18.9 5 Norte 14 Noroeste 0 -- -- 61
2019-09-18 00:00:00 20 9 Noroeste 18 Noroeste 0 -- -- 55
2019-09-17 23:00:00 19.9 5 Sudoeste 11 Noroeste 0 -- -- 55
2019-09-17 22:00:00 20.9 3 Sudoeste 11 Noroeste 0 -- -- 50
2019-09-17 21:00:00 22.2 7 Oeste 32 Nordeste 0 -- -- 47
2019-09-15 18:00:00 -- -- -- -- -- -- -- -- --
2019-09-15 17:00:00 -- -- -- -- -- -- -- -- --
2019-09-15 16:00:00 -- -- -- -- -- -- -- -- --
2019-09-15 15:00:00 23 13 Norte 22 Norte 0 -- -- 60
2019-09-15 14:00:00 25.3 11 Sudeste 27 Sudeste 0 -- -- 51
2019-09-15 13:00:00 24.9 5 Sudeste 17 Sudeste 0 -- -- 50
2019-09-15 12:00:00 23.5 4 Sur 10 Sur 0 -- -- 56
2019-09-15 11:00:00 19.5 3 Noroeste 8 Sudoeste 0 -- -- 72
2019-09-15 10:00:00 17 6 Oeste 11 Sudoeste 0 -- -- 82
2019-09-15 09:00:00 15.5 3 Este 8 Este 0 -- -- 87
2019-09-15 08:00:00 15.5 4 Nordeste 9 Nordeste 0 -- -- 87
2019-09-15 07:00:00 15.7 2 Sudeste 5 Oeste 0 -- -- 86
2019-09-15 06:00:00 16.4 0 Calma 8 Norte 0 -- -- 83
2019-09-15 05:00:00 16.3 0 Calma 8 Norte 0 -- -- 84
2019-09-15 04:00:00 16.7 3 Norte 8 Oeste 0 -- -- 79
2019-09-15 03:00:00 16.6 7 Norte 10 Norte 0 -- -- 79
2019-09-15 02:00:00 18 6 Norte 10 Norte 0 -- -- 74
2019-09-15 01:00:00 18.3 4 Noroeste 8 Norte 0 -- -- 76
2019-09-15 00:00:00 18.9 3 Sudoeste 8 Nordeste 0 -- -- 74
2019-09-14 23:00:00 18.4 3 Noroeste 10 Norte 0 -- -- 80
2019-09-14 22:00:00 18.3 9 Norte 14 Norte 0 -- -- 80
2019-09-14 21:00:00 18.1 9 Norte 17 Norte 0.2 -- -- 83
2019-09-14 20:00:00 20.2 10 Nordeste 23 Este 0.4 -- -- 74
2019-09-14 19:00:00 22.9 6 Sudeste 17 Sudeste 0 -- -- 52
2019-09-14 18:00:00 22.5 2 Nordeste 15 Sudeste 0 -- -- 57
2019-09-14 17:00:00 22.6 10 Sudeste 27 Sudeste 0.2 -- -- 58
2019-09-14 16:00:00 24.8 15 Sudeste 26 Sudeste 0 -- -- 45
2019-09-14 15:00:00 25.1 14 Sudeste 31 Sur 0 -- -- 45
2019-09-14 14:00:00 25.5 19 Sudeste 37 Sudeste 0 -- -- 44
2019-09-14 13:00:00 26.8 17 Sur 27 Sur 0 -- -- 41
2019-09-14 12:00:00 25.6 5 Sudoeste 13 Sur 0 -- -- 43
2019-09-14 11:00:00 23.4 6 Sur 14 Sur 0 -- -- 49
2019-09-14 10:00:00 22 4 Nordeste 11 Norte 0 -- -- 53
2019-09-14 09:00:00 17.2 3 Este 11 Norte 0 -- -- 66
2019-09-14 08:00:00 17.7 6 Sudoeste 12 Oeste 0 -- -- 64
2019-09-14 07:00:00 18.8 4 Norte 9 Nordeste 0 -- -- 59
2019-09-14 06:00:00 -- -- -- -- -- -- -- -- --
2019-09-14 05:00:00 -- -- -- -- -- -- -- -- --
2019-09-14 04:00:00 -- -- -- -- -- -- -- -- --
2019-09-14 03:00:00 19.2 3 Norte 12 Norte 0 -- -- 63
2019-09-14 02:00:00 19 5 Oeste 10 Oeste 0 -- -- 61
2019-09-14 01:00:00 20.1 5 Sudeste 15 Sudeste 0 -- -- 59
2019-09-14 00:00:00 20.7 9 Este 23 Este 0 -- -- 57
2019-09-13 23:00:00 19.8 2 Noroeste 11 Sudeste 0 -- -- 57
2019-09-13 22:00:00 21 3 Sudeste 10 Este 0 -- -- 52
2019-09-13 21:00:00 21.7 6 Sudeste 23 Sur 0 -- -- 50
2019-09-13 20:00:00 22.4 15 Sudeste 28 Este 0 -- -- 47
2019-09-13 19:00:00 23.4 14 Sudeste 27 Este 0 -- -- 43
2019-09-13 18:00:00 24.1 11 Este 33 Sudeste 0 -- -- 42
2019-09-13 17:00:00 26 17 Sudeste 38 Sudeste 0 -- -- 36
2019-09-13 16:00:00 27.2 13 Sudeste 32 Sudeste 0 -- -- 33
2019-09-13 15:00:00 28.7 19 Sudeste 32 Sudeste 0 -- -- 31
2019-09-13 14:00:00 28.6 6 Oeste 20 Nordeste 0 -- -- 35
2019-09-13 13:00:00 28.8 15 Nordeste 33 Este 0 -- -- 34
2019-09-13 12:00:00 25.8 14 Nordeste 44 Nordeste 0 -- -- 40
2019-09-13 11:00:00 23.6 25 Nordeste 39 Nordeste 0 -- -- 44
2019-09-13 10:00:00 22 6 Nordeste 24 Norte 0 -- -- 49
2019-09-13 09:00:00 21.4 8 Norte 20 Noroeste 0 -- -- 50
2019-09-13 08:00:00 20.1 8 Norte 26 Este 0 -- -- 53
2019-09-13 07:00:00 20.3 12 Nordeste 23 Norte 0 -- -- 53
2019-09-13 06:00:00 19.2 12 Norte 14 Nordeste 0 -- -- 57
2019-09-13 05:00:00 19.4 4 Norte 12 Norte 0 -- -- 56
2019-09-13 04:00:00 20.5 2 Noroeste 10 Nordeste 0 -- -- 53
2019-09-13 03:00:00 21.3 4 Oeste 9 Nordeste 0 -- -- 50
2019-09-13 02:00:00 23 5 Nordeste 13 Norte 0 -- -- 46
2019-09-13 01:00:00 21.1 9 Norte 14 Norte 0 -- -- 51
2019-09-13 00:00:00 22.1 3 Oeste 10 Noroeste 0 -- -- 48
2019-09-12 23:00:00 24 4 Norte 11 Este 0 -- -- 43
2019-09-12 22:00:00 25.6 4 Nordeste 23 Sudeste 0 -- -- 39
2019-09-12 21:00:00 27.5 9 Este 27 Sudeste 0 -- -- 35
2019-09-12 20:00:00 28.9 10 Sudeste 20 Este 0 -- -- 32
2019-09-12 19:00:00 30 6 Este 31 Nordeste 0 -- -- 29
2019-09-12 18:00:00 31 13 Nordeste 32 Norte 0 -- -- 27
2019-09-12 17:00:00 31.4 14 Nordeste 29 Nordeste 0 -- -- 27
2019-09-12 16:00:00 30.7 12 Nordeste 26 Este 0 -- -- 27
2019-09-12 15:00:00 29.7 11 Este 31 Nordeste 0 -- -- 29
2019-09-12 14:00:00 28.5 13 Norte 28 Nordeste 0 -- -- 31
2019-09-12 13:00:00 27.2 18 Nordeste 30 Nordeste 0 -- -- 34
2019-09-12 12:00:00 25.7 14 Nordeste 35 Nordeste 0 -- -- 37
2019-09-12 11:00:00 22.8 20 Nordeste 36 Nordeste 0 -- -- 41
2019-09-12 10:00:00 21.4 26 Nordeste 37 Nordeste 0 -- -- 43
2019-09-12 09:00:00 18.3 10 Norte 33 Nordeste 0 -- -- 51
2019-09-12 08:00:00 16.7 7 Norte 19 Norte 0 -- -- 55
2019-09-12 07:00:00 16.8 7 Noroeste 14 Norte 0 -- -- 54
2019-09-12 06:00:00 16.8 6 Norte 13 Norte 0 -- -- 54
2019-09-12 05:00:00 17.8 4 Noroeste 14 Norte 0 -- -- 50
2019-09-12 04:00:00 19.6 9 Nordeste 21 Nordeste 0 -- -- 46
2019-09-12 03:00:00 20.2 17 Nordeste 24 Nordeste 0 -- -- 44
2019-09-12 02:00:00 20.9 12 Nordeste 27 Nordeste 0 -- -- 42
2019-09-12 01:00:00 21.1 12 Nordeste 27 Nordeste 0 -- -- 42
2019-09-12 00:00:00 21.2 18 Nordeste 42 Nordeste 0 -- -- 41
2019-09-11 23:00:00 22.2 24 Nordeste 48 Norte 0 -- -- 39
2019-09-11 22:00:00 22.5 21 Nordeste 38 Nordeste 0 -- -- 38
2019-09-11 21:00:00 23 17 Nordeste 41 Nordeste 0 -- -- 37
2019-09-11 20:00:00 24.7 21 Nordeste 49 Nordeste 0 -- -- 33
2019-09-11 19:00:00 26 18 Nordeste 46 Norte 0 -- -- 31
2019-09-11 18:00:00 26.1 26 Nordeste 51 Nordeste 0 -- -- 31
2019-09-11 17:00:00 26.4 32 Nordeste 59 Nordeste 0 -- -- 30
2019-09-11 16:00:00 26 33 Nordeste 61 Nordeste 0 -- -- 30
2019-09-11 15:00:00 25.2 31 Nordeste 53 Nordeste 0 -- -- 32
2019-09-11 14:00:00 24.5 28 Nordeste 47 Norte 0 -- -- 32
2019-09-11 13:00:00 23 25 Norte 47 Nordeste 0 -- -- 35
2019-09-11 12:00:00 21.6 19 Nordeste 42 Norte 0 -- -- 37
2019-09-11 11:00:00 20 10 Sur 39 Este 0 -- -- 42
2019-09-11 10:00:00 17.6 16 Sur 34 Sur 0 -- -- 47
2019-09-11 09:00:00 16.4 5 Este 33 Sur 0 -- -- 53
2019-09-11 08:00:00 16.2 12 Sur 33 Sudeste 0 -- -- 51
2019-09-11 07:00:00 16.3 19 Sudeste 36 Sudeste 0 -- -- 49
2019-09-11 06:00:00 15.7 8 Oeste 23 Noroeste 0 -- -- 56
2019-09-11 05:00:00 15.6 6 Nordeste 39 Nordeste 0 -- -- 53
2019-09-11 04:00:00 16.3 13 Nordeste 37 Nordeste 0 -- -- 50
2019-09-11 03:00:00 16.7 10 Oeste 32 Oeste 0 -- -- 48
2019-09-11 02:00:00 16.9 5 Norte 26 Este 0 -- -- 47
2019-09-11 01:00:00 16.5 6 Oeste 17 Oeste 0 -- -- 48
2019-09-11 00:00:00 17.6 3 Noroeste 11 Nordeste 0 -- -- 45
2019-09-10 23:00:00 18.1 5 Este 14 Norte 0 -- -- 41
2019-09-10 22:00:00 19.2 5 Norte 22 Noroeste 0 -- -- 36
2019-09-10 21:00:00 20.6 10 Noroeste 20 Norte 0 -- -- 32
2019-09-10 20:00:00 22.3 11 Norte 29 Norte 0 -- -- 28
2019-09-10 19:00:00 23.6 13 Norte 32 Noroeste 0 -- -- 26
2019-09-10 18:00:00 24 14 Norte 38 Norte 0 -- -- 24
2019-09-10 17:00:00 23 15 Norte 37 Norte 0 -- -- 28
2019-09-10 16:00:00 22.8 20 Norte 38 Noroeste 0 -- -- 29
2019-09-10 15:00:00 22.5 20 Norte 44 Noroeste 0 -- -- 28
2019-09-10 14:00:00 21.7 14 Norte 41 Nordeste 0 -- -- 31
2019-09-10 13:00:00 19.9 20 Norte 48 Nordeste 0 -- -- 34
2019-09-10 12:00:00 18.9 18 Norte 38 Nordeste 0 -- -- 37
2019-09-10 11:00:00 17.7 15 Norte 33 Nordeste 0 -- -- 40
2019-09-10 10:00:00 15.8 12 Norte 32 Norte 0 -- -- 48
2019-09-10 09:00:00 14 7 Noroeste 34 Norte 0 -- -- 53
2019-09-10 08:00:00 13.6 5 Nordeste 23 Noroeste 0 -- -- 56
2019-09-10 07:00:00 14.7 10 Noroeste 38 Norte 0 -- -- 65
2019-09-10 06:00:00 15.2 14 Noroeste 31 Noroeste 0 -- -- 71
2019-09-10 05:00:00 15.5 8 Oeste 19 Oeste 0 -- -- 69
2019-09-10 04:00:00 15.9 10 Oeste 23 Sudoeste 0 -- -- 68
2019-09-10 03:00:00 16.1 7 Oeste 29 Norte 0 -- -- 68
2019-09-10 02:00:00 16.9 22 Norte 44 Norte 0 -- -- 66
2019-09-10 01:00:00 18 12 Noroeste 38 Oeste 0 -- -- 59
2019-09-10 00:00:00 19 13 Noroeste 30 Noroeste 0 -- -- 52
2019-09-09 23:00:00 20.4 9 Noroeste 35 Noroeste 0 -- -- 43
2019-09-09 22:00:00 21.6 12 Norte 32 Noroeste 0 -- -- 39
2019-09-09 21:00:00 22.6 13 Noroeste 28 Noroeste 0 -- -- 40
2019-09-09 20:00:00 24.9 13 Noroeste 33 Noroeste 0 -- -- 32
2019-09-09 19:00:00 27 11 Oeste 30 Oeste 0 -- -- 23
2019-09-09 18:00:00 27.5 17 Oeste 36 Oeste 0 -- -- 21
2019-09-09 17:00:00 29 13 Oeste 29 Sudoeste 0 -- -- 18
2019-09-09 16:00:00 29.1 14 Sudoeste 31 Sudoeste 0 -- -- 17
2019-09-09 15:00:00 29.6 12 Oeste 35 Sudoeste 0 -- -- 18
2019-09-09 14:00:00 29.5 17 Sudoeste 28 Sudoeste 0 -- -- 17
2019-09-09 13:00:00 28.2 12 Sur 23 Sudoeste 0 -- -- 20
2019-09-09 12:00:00 26.7 7 Sur 15 Sudoeste 0 -- -- 24
2019-09-09 11:00:00 23.3 7 Sur 10 Sur 0 -- -- 32
2019-09-09 10:00:00 21.2 0 Calma 4 Nordeste 0 -- -- 37
2019-09-09 09:00:00 17.2 2 Nordeste 7 Norte 0 -- -- 45
2019-09-09 08:00:00 13.9 4 Nordeste 7 Nordeste 0 -- -- 51
2019-09-09 07:00:00 16.3 0 Calma 9 Nordeste 0 -- -- 46
2019-09-09 06:00:00 16.9 0 Calma 10 Norte 0 -- -- 44
2019-09-09 05:00:00 17.1 5 Nordeste 7 Nordeste 0 -- -- 44
2019-09-09 04:00:00 19.2 3 Sudoeste 8 Sudoeste 0 -- -- 39
2019-09-09 03:00:00 21.4 3 Nordeste 18 Norte 0 -- -- 34
2019-09-09 02:00:00 21.9 5 Oeste 14 Norte 0 -- -- 35
2019-09-09 01:00:00 23.4 4 Norte 30 Norte 0 -- -- 32
2019-09-09 00:00:00 23.8 17 Norte 30 Norte 0 -- -- 32
2019-09-08 23:00:00 23.9 4 Oeste 15 Oeste 0 -- -- 28
2019-09-08 22:00:00 24.9 5 Norte 19 Norte 0 -- -- 27
2019-09-08 21:00:00 26.8 9 Norte 19 Norte 0 -- -- 27
2019-09-08 20:00:00 29.8 10 Norte 20 Norte 0 -- -- 22
2019-09-08 19:00:00 31.3 6 Norte 21 Nordeste 0 -- -- 20
2019-09-08 18:00:00 31.5 12 Sudeste 24 Sudeste 0 -- -- 21
2019-09-08 17:00:00 31.6 9 Sudeste 23 Sur 0 -- -- 21
2019-09-08 16:00:00 30.9 6 Sudeste 19 Este 0 -- -- 24
2019-09-08 15:00:00 29.6 9 Este 24 Sudoeste 0 -- -- 26
2019-09-08 14:00:00 29.4 7 Sur 19 Este 0 -- -- 27
2019-09-08 13:00:00 28.3 10 Sudeste 18 Sudeste 0 -- -- 29
2019-09-08 12:00:00 26.5 4 Nordeste 11 Sur 0 -- -- 31
2019-09-08 11:00:00 24.4 5 Sur 10 Sur 0 -- -- 33
2019-09-08 10:00:00 21.6 3 Sur 5 Sudoeste 0 -- -- 38
2019-09-08 09:00:00 18.1 0 Calma 8 Norte 0 -- -- 43
2019-09-08 08:00:00 17.2 2 Este 20 Norte 0 -- -- 42
2019-09-08 07:00:00 18.1 7 Norte 15 Norte 0 -- -- 38
2019-09-08 06:00:00 18 10 Norte 13 Norte 0 -- -- 37
2019-09-08 05:00:00 18.4 5 Norte 7 Norte 0 -- -- 34
2019-09-08 04:00:00 19.9 0 Calma 11 Sudeste 0 -- -- 31
2019-09-08 03:00:00 20.5 5 Sudoeste 9 Este 0 -- -- 30
2019-09-08 02:00:00 22.4 6 Oeste 32 Nordeste 0 -- -- 26
2019-09-08 01:00:00 24.3 19 Nordeste 46 Nordeste 0 -- -- 23
2019-09-08 00:00:00 24.5 26 Nordeste 49 Nordeste 0 -- -- 24
2019-09-07 23:00:00 25.1 24 Nordeste 48 Nordeste 0 -- -- 25
2019-09-07 22:00:00 25.8 18 Norte 37 Nordeste 0 -- -- 27
2019-09-07 21:00:00 26.7 15 Nordeste 30 Nordeste 0 -- -- 27
2019-09-07 20:00:00 28.9 12 Nordeste 24 Norte 0 -- -- 24
2019-09-07 19:00:00 30.1 11 Nordeste 20 Nordeste 0 -- -- 23
2019-09-07 18:00:00 31.1 5 Oeste 17 Norte 0 -- -- 22
2019-09-07 17:00:00 30.2 8 Oeste 24 Nordeste 0 -- -- 22
2019-09-07 16:00:00 29.7 11 Nordeste 30 Nordeste 0 -- -- 23
2019-09-07 15:00:00 29.4 9 Este 19 Este 0 -- -- 22
2019-09-07 14:00:00 27.8 6 Este 16 Norte 0 -- -- 26
2019-09-07 13:00:00 26 5 Nordeste 16 Nordeste 0 -- -- 28
2019-09-07 12:00:00 23.8 4 Nordeste 13 Este 0 -- -- 32
2019-09-07 11:00:00 21.6 6 Este 18 Nordeste 0 -- -- 36
2019-09-07 10:00:00 18.6 5 Sur 8 Sudeste 0 -- -- 42
2019-09-07 09:00:00 16.7 3 Sur 19 Norte 0 -- -- 46
2019-09-07 08:00:00 15.6 9 Norte 27 Norte 0 -- -- 47
2019-09-07 07:00:00 16.6 15 Norte 27 Norte 0 -- -- 43
2019-09-07 06:00:00 17.1 15 Norte 22 Norte 0 -- -- 41
2019-09-07 05:00:00 17.5 8 Norte 18 Noroeste 0 -- -- 40
2019-09-07 04:00:00 18.5 9 Norte 23 Nordeste 0 -- -- 37
2019-09-07 03:00:00 18.5 9 Norte 33 Nordeste 0 -- -- 39
2019-09-07 02:00:00 19.9 17 Nordeste 45 Norte 0 -- -- 35
2019-09-07 01:00:00 20.6 18 Norte 39 Norte 0 -- -- 34
2019-09-07 00:00:00 22.1 19 Norte 50 Nordeste 0 -- -- 31
2019-09-06 23:00:00 23 28 Nordeste 57 Nordeste 0 -- -- 30
2019-09-06 22:00:00 24.5 29 Nordeste 47 Nordeste 0 -- -- 23
2019-09-06 21:00:00 25.4 19 Nordeste 34 Norte 0 -- -- 23
2019-09-06 20:00:00 27.2 16 Nordeste 31 Nordeste 0 -- -- 20
2019-09-06 19:00:00 28.2 18 Nordeste 29 Nordeste 0 -- -- 20
2019-09-06 18:00:00 29 10 Norte 22 Nordeste 0 -- -- 21
2019-09-06 17:00:00 28.8 10 Nordeste 24 Nordeste 0 -- -- 22
2019-09-06 16:00:00 28.6 9 Norte 26 Nordeste 0 -- -- 24
2019-09-06 15:00:00 27.7 17 Nordeste 30 Nordeste 0 -- -- 25
2019-09-06 14:00:00 26.5 8 Sur 23 Norte 0 -- -- 28
2019-09-06 13:00:00 24.5 10 Nordeste 27 Nordeste 0 -- -- 33
2019-09-06 12:00:00 23.9 4 Noroeste 15 Este 0 -- -- 33
2019-09-06 11:00:00 20.7 4 Oeste 9 Sur 0 -- -- 39
2019-09-06 10:00:00 18.2 6 Sur 10 Sudeste 0 -- -- 46
2019-09-06 09:00:00 15.6 3 Sur 12 Noroeste 0 -- -- 54
2019-09-06 08:00:00 14.2 4 Norte 9 Norte 0 -- -- 56
2019-09-06 07:00:00 15.6 5 Norte 15 Noroeste 0 -- -- 52
2019-09-06 06:00:00 16.1 7 Norte 15 Norte 0 -- -- 51
2019-09-06 05:00:00 17 5 Norte 13 Norte 0 -- -- 49
2019-09-06 04:00:00 18 9 Norte 26 Nordeste 0 -- -- 45
2019-09-06 03:00:00 19.3 12 Norte 30 Nordeste 0 -- -- 43
2019-09-06 02:00:00 19.7 18 Nordeste 39 Nordeste 0 -- -- 42
2019-09-06 01:00:00 21 16 Norte 50 Nordeste 0 -- -- 37
2019-09-06 00:00:00 21.3 23 Norte 55 Nordeste 0 -- -- 36
2019-09-05 23:00:00 22.6 32 Nordeste 57 Nordeste 0 -- -- 30
2019-09-05 22:00:00 23.7 35 Nordeste 54 Nordeste 0 -- -- 29
2019-09-05 21:00:00 25.7 19 Nordeste 44 Nordeste 0 -- -- 24
2019-09-05 20:00:00 27.8 21 Nordeste 42 Nordeste 0 -- -- 23
2019-09-05 19:00:00 29.3 20 Nordeste 44 Norte 0 -- -- 23
2019-09-05 18:00:00 30 21 Nordeste 43 Nordeste 0 -- -- 24
2019-09-05 17:00:00 30.5 23 Nordeste 45 Nordeste 0 -- -- 26
2019-09-05 16:00:00 30.9 21 Nordeste 38 Nordeste 0 -- -- 28
2019-09-05 15:00:00 29.9 23 Nordeste 39 Nordeste 0 -- -- 30
2019-09-05 14:00:00 28.4 20 Nordeste 40 Nordeste 0 -- -- 33
2019-09-05 13:00:00 27.1 22 Nordeste 37 Nordeste 0 -- -- 36
2019-09-05 12:00:00 26 16 Nordeste 36 Nordeste 0 -- -- 36
2019-09-05 11:00:00 23.9 18 Nordeste 41 Nordeste 0 -- -- 38
2019-09-05 10:00:00 21.1 24 Nordeste 43 Nordeste 0 -- -- 43
2019-09-05 09:00:00 20.4 22 Nordeste 43 Nordeste 0 -- -- 41
2019-09-05 08:00:00 19.4 20 Norte 48 Nordeste 0 -- -- 42
2019-09-05 07:00:00 18.8 16 Norte 42 Norte 0 -- -- 50
2019-09-05 06:00:00 19.8 11 Norte 45 Nordeste 0 -- -- 50
2019-09-05 05:00:00 21.1 10 Norte 24 Nordeste 0 -- -- 47
2019-09-05 04:00:00 22.6 5 Oeste 26 Nordeste 0 -- -- 43
2019-09-05 03:00:00 24.6 14 Nordeste 33 Noroeste 0 -- -- 35
2019-09-05 02:00:00 24.9 12 Norte 42 Norte 0 -- -- 40
2019-09-05 01:00:00 26.5 8 Norte 37 Norte 0 -- -- 38
2019-09-05 00:00:00 26.3 16 Norte 37 Norte 0 -- -- 37
2019-09-04 23:00:00 27.1 10 Norte 26 Norte 0 -- -- 33
2019-09-04 22:00:00 27 4 Norte 13 Norte 0 -- -- 22
2019-09-04 21:00:00 30.1 6 Noroeste 14 Noroeste 0 -- -- 20
2019-09-04 20:00:00 33.5 12 Noroeste 28 Norte 0 -- -- 15
2019-09-04 19:00:00 34.8 16 Oeste 36 Oeste 0 -- -- 16
2019-09-04 18:00:00 35.2 16 Noroeste 41 Oeste 0 -- -- 14
2019-09-04 17:00:00 35.7 16 Noroeste 40 Noroeste 0 -- -- 14
2019-09-04 16:00:00 35.1 23 Oeste 43 Sudoeste 0 -- -- 15
2019-09-04 15:00:00 34.7 14 Noroeste 35 Oeste 0 -- -- 15
2019-09-04 14:00:00 33.8 11 Norte 29 Noroeste 0 -- -- 18
2019-09-04 13:00:00 33.2 13 Norte 25 Norte 0 -- -- 18
2019-09-04 12:00:00 31.9 11 Norte 21 Noroeste 0 -- -- 19
2019-09-04 11:00:00 30.3 4 Este 11 Este 0 -- -- 32
2019-09-04 10:00:00 27.2 12 Nordeste 24 Nordeste 0 -- -- 38
2019-09-04 09:00:00 23.3 3 Norte 9 Noroeste 0 -- -- 44
2019-09-04 08:00:00 21.6 4 Norte 13 Norte 0 -- -- 45
2019-09-04 07:00:00 22.9 4 Nordeste 14 Norte 0 -- -- 41
2019-09-04 06:00:00 23.9 4 Norte 14 Norte 0 -- -- 38
2019-09-04 05:00:00 23.1 3 Norte 16 Norte 0 -- -- 38
2019-09-04 04:00:00 22.8 8 Norte 12 Noroeste 0 -- -- 36
2019-09-04 03:00:00 25.2 4 Sudoeste 24 Nordeste 0 -- -- 31
2019-09-04 02:00:00 26.8 4 Este 15 Sudeste 0 -- -- 28
2019-09-04 01:00:00 27.4 3 Sur 9 Sur 0 -- -- 27
2019-09-04 00:00:00 28 6 Sudoeste 15 Nordeste 0 -- -- 26
2019-09-03 23:00:00 28.4 5 Norte 18 Norte 0 -- -- 29
2019-09-03 22:00:00 29.4 10 Norte 22 Nordeste 0 -- -- 28
2019-09-03 21:00:00 31 10 Norte 23 Norte 0 -- -- 24
2019-09-03 20:00:00 34 10 Norte 21 Norte 0 -- -- 21
2019-09-03 19:00:00 34.7 13 Nordeste 31 Norte 0 -- -- 22
2019-09-03 18:00:00 36 13 Oeste 62 Oeste 0 -- -- 18
2019-09-03 17:00:00 35.7 12 Sur 30 Oeste 0 -- -- 19
2019-09-03 16:00:00 35.1 11 Sur 28 Sur 0 -- -- 23
2019-09-03 15:00:00 33.9 8 Este 19 Sur 0 -- -- 26
2019-09-03 14:00:00 33.1 6 Sur 16 Sur 0 -- -- 28
2019-09-03 13:00:00 31.9 8 Sudeste 16 Sudoeste 0 -- -- 29
2019-09-03 12:00:00 30.1 7 Sur 14 Sur 0 -- -- 31
2019-09-03 11:00:00 28.4 4 Este 7 Sudeste 0 -- -- 35
2019-09-03 10:00:00 24.8 3 Sudeste 5 Sudeste 0 -- -- 40
2019-09-03 09:00:00 21.8 0 Calma 8 Sudoeste 0 -- -- 46
2019-09-03 08:00:00 20.6 5 Norte 12 Norte 0 -- -- 47
2019-09-03 07:00:00 21.1 7 Norte 12 Norte 0 -- -- 46
2019-09-03 06:00:00 22.1 2 Sur 15 Norte 0 -- -- 44
2019-09-03 05:00:00 22.3 2 Noroeste 18 Noroeste 0 -- -- 42
2019-09-03 04:00:00 21.8 7 Norte 10 Norte 0 -- -- 45
2019-09-03 03:00:00 23.6 4 Norte 10 Norte 0 -- -- 42
2019-09-03 02:00:00 25.5 5 Norte 17 Nordeste 0 -- -- 38
2019-09-03 01:00:00 26.1 6 Nordeste 15 Nordeste 0 -- -- 37
2019-09-03 00:00:00 27.5 12 Norte 40 Nordeste 0 -- -- 36
2019-09-02 23:00:00 28.2 27 Nordeste 44 Nordeste 0 -- -- 35
2019-09-02 22:00:00 28.8 23 Nordeste 37 Norte 0 -- -- 35
2019-09-02 21:00:00 30 17 Nordeste 27 Nordeste 0 -- -- 34
2019-09-02 20:00:00 33.2 4 Norte 12 Este 0 -- -- 23
2019-09-02 19:00:00 33.5 3 Nordeste 17 Nordeste 0 -- -- 23
2019-09-02 18:00:00 33.7 6 Nordeste 22 Sur 0 -- -- 21
2019-09-02 17:00:00 33.7 10 Sur 32 Sur 0 -- -- 21
2019-09-02 16:00:00 33 5 Sudeste 19 Nordeste 0 -- -- 30
2019-09-02 15:00:00 31.8 10 Este 21 Sudeste 0 -- -- 33
2019-09-02 14:00:00 30.5 8 Este 22 Este 0 -- -- 36
2019-09-02 13:00:00 29.1 8 Nordeste 18 Norte 0 -- -- 39
2019-09-02 12:00:00 27.1 6 Este 22 Nordeste 0 -- -- 43
2019-09-02 11:00:00 25.9 7 Norte 15 Norte 0 -- -- 45
2019-09-02 10:00:00 23.4 7 Norte 19 Norte 0 -- -- 51
2019-09-02 09:00:00 20.5 12 Norte 21 Norte 0 -- -- 59
2019-09-02 08:00:00 20.1 14 Norte 26 Norte 0 -- -- 59
2019-09-02 07:00:00 21.1 17 Norte 29 Norte 0 -- -- 56
2019-09-02 06:00:00 21.4 8 Norte 15 Norte 0 -- -- 53
2019-09-02 05:00:00 22.9 7 Norte 24 Norte 0 -- -- 47
2019-09-02 04:00:00 23.8 17 Nordeste 29 Norte 0 -- -- 45
2019-09-02 03:00:00 24.9 5 Norte 23 Norte 0 -- -- 36
2019-09-02 02:00:00 25.4 15 Norte 31 Norte 0 -- -- 39
2019-09-02 01:00:00 26.1 10 Norte 32 Norte 0 -- -- 36
2019-09-02 00:00:00 26.1 17 Norte 35 Norte 0 -- -- 38
2019-09-01 23:00:00 27.2 12 Norte 24 Norte 0 -- -- 32
2019-09-01 22:00:00 28.1 8 Norte 18 Noroeste 0 -- -- 33
2019-09-01 21:00:00 30.5 4 Noroeste 23 Sudoeste 0 -- -- 29
2019-09-01 20:00:00 33 11 Sudoeste 25 Oeste 0 -- -- 25
2019-09-01 19:00:00 34 15 Oeste 25 Oeste 0 -- -- 24
2019-09-01 18:00:00 33.7 8 Sur 29 Sudoeste 0 -- -- 25
2019-09-01 17:00:00 33.4 14 Sudoeste 29 Oeste 0 -- -- 26
2019-09-01 16:00:00 33 15 Oeste 35 Sudoeste 0 -- -- 27
2019-09-01 15:00:00 33.8 13 Sudoeste 28 Oeste 0 -- -- 25
2019-09-01 14:00:00 33 14 Oeste 30 Oeste 0 -- -- 26
2019-09-01 13:00:00 31.7 10 Sur 19 Sudoeste 0 -- -- 28
2019-09-01 12:00:00 30.9 5 Sudoeste 12 Sur 0 -- -- 32
2019-09-01 11:00:00 28.5 2 Nordeste 6 Este 0 -- -- 37
2019-09-01 10:00:00 25.3 2 Sudeste 4 Este 0 -- -- 44
2019-09-01 09:00:00 21.2 0 Calma 7 Noroeste 0 -- -- 52
2019-09-01 08:00:00 20 0 Calma 13 Norte 0 -- -- 53
2019-09-01 07:00:00 21.2 3 Oeste 6 Norte 0 -- -- 52
2019-09-01 06:00:00 22.5 4 Noroeste 15 Nordeste 0 -- -- 49
2019-09-01 05:00:00 23.6 7 Nordeste 20 Nordeste 0 -- -- 49
2019-09-01 04:00:00 23.9 6 Norte 17 Norte 0 -- -- 46
2019-09-01 03:00:00 24 2 Sudeste 14 Norte 0 -- -- 41
2019-09-01 02:00:00 22.6 2 Sudoeste 6 Noroeste 0 -- -- 48
2019-09-01 01:00:00 23.6 0 Calma 9 Noroeste 0 -- -- 46
2019-09-01 00:00:00 24.5 4 Norte 13 Norte 0 -- -- 44
2019-08-31 23:00:00 26.1 4 Norte 8 Oeste 0 -- -- 43
2019-08-31 22:00:00 27.8 6 Norte 15 Noroeste 0 -- -- 40
2019-08-31 21:00:00 30.7 7 Noroeste 22 Oeste 0 -- -- 34
2019-08-31 20:00:00 33.1 13 Oeste 28 Sudoeste 0 -- -- 26
2019-08-31 19:00:00 34 10 Sudoeste 25 Sur 0 -- -- 25
2019-08-31 18:00:00 34.7 16 Sudoeste 32 Sudoeste 0 -- -- 24
2019-08-31 17:00:00 34.5 13 Sur 27 Sudoeste 0 -- -- 25
2019-08-31 16:00:00 35.1 9 Sudeste 23 Sur 0 -- -- 25
2019-08-31 15:00:00 33.6 9 Sudoeste 22 Sudeste 0 -- -- 27
2019-08-31 14:00:00 32.9 8 Sudeste 20 Sur 0 -- -- 28
2019-08-31 13:00:00 31.5 13 Sur 21 Sudeste 0 -- -- 32
2019-08-31 12:00:00 30.4 11 Sur 20 Sur 0 -- -- 33
2019-08-31 11:00:00 29 6 Sudeste 13 Sur 0 -- -- 35
2019-08-31 10:00:00 26.4 4 Sur 8 Oeste 0 -- -- 41
2019-08-31 09:00:00 23 3 Oeste 9 Oeste 0 -- -- 47
2019-08-31 08:00:00 21.5 4 Noroeste 6 Noroeste 0 -- -- 49
2019-08-31 07:00:00 22.5 3 Norte 8 Norte 0 -- -- 46
2019-08-31 06:00:00 23.9 4 Nordeste 12 Este 0 -- -- 42
2019-08-31 05:00:00 24.3 3 Este 10 Este 0 -- -- 42
2019-08-31 04:00:00 24.8 4 Nordeste 9 Este 0 -- -- 40
2019-08-31 03:00:00 22.9 2 Noroeste 12 Norte 0 -- -- 45
2019-08-31 02:00:00 25.2 7 Norte 12 Norte 0 -- -- 40
2019-08-31 01:00:00 26.5 4 Sudoeste 30 Este 0 -- -- 37
2019-08-31 00:00:00 28 8 Nordeste 31 Nordeste 0 -- -- 35
2019-08-30 23:00:00 28.4 10 Norte 27 Norte 0 -- -- 34
2019-08-30 22:00:00 28.6 10 Norte 23 Norte 0 -- -- 33
2019-08-30 21:00:00 32 4 Noroeste 14 Sudoeste 0 -- -- 26
2019-08-30 20:00:00 34.3 7 Sudoeste 19 Sudoeste 0 -- -- 23
2019-08-30 19:00:00 35 10 Sudoeste 22 Oeste 0 -- -- 23
2019-08-30 18:00:00 35.3 12 Sur 23 Oeste 0 -- -- 23
2019-08-30 17:00:00 35.8 10 Sudoeste 30 Oeste 0 -- -- 23
2019-08-30 16:00:00 34.9 13 Sudoeste 25 Sur 0 -- -- 24
2019-08-30 15:00:00 34 10 Sur 24 Sudoeste 0 -- -- 25
2019-08-30 14:00:00 33.2 9 Sudoeste 20 Sur 0 -- -- 27
2019-08-30 13:00:00 32.1 9 Sur 21 Sur 0 -- -- 28
2019-08-30 12:00:00 30.5 5 Sur 13 Sudeste 0 -- -- 32
2019-08-30 11:00:00 27.9 3 Sur 9 Sudoeste 0 -- -- 35
2019-08-30 10:00:00 24.4 0 Calma 5 Nordeste 0 -- -- 43
2019-08-30 09:00:00 20.3 3 Nordeste 6 Oeste 0 -- -- 51
2019-08-30 08:00:00 19 4 Sudoeste 8 Norte 0 -- -- 52
2019-08-30 07:00:00 20.3 6 Norte 9 Norte 0 -- -- 47
2019-08-30 06:00:00 20.7 6 Norte 10 Norte 0 -- -- 47
2019-08-30 05:00:00 21.5 6 Norte 8 Norte 0 -- -- 44
2019-08-30 04:00:00 21.5 5 Norte 8 Norte 0 -- -- 44
2019-08-30 03:00:00 21.4 0 Calma 7 Norte 0 -- -- 47
2019-08-30 02:00:00 22.7 3 Noroeste 9 Norte 0 -- -- 44
2019-08-30 01:00:00 23.2 2 Este 5 Este 0 -- -- 44
2019-08-30 00:00:00 24.2 3 Sudoeste 15 Norte 0 -- -- 38
2019-08-29 23:00:00 25.3 5 Nordeste 10 Norte 0 -- -- 36
2019-08-29 22:00:00 25.9 5 Norte 12 Norte 0 -- -- 34
2019-08-29 21:00:00 30.8 5 Noroeste 17 Oeste 0 -- -- 26
2019-08-29 20:00:00 33.1 11 Oeste 24 Sudoeste 0 -- -- 22
2019-08-29 19:00:00 34 11 Sudoeste 27 Oeste 0 -- -- 21
2019-08-29 18:00:00 34.3 12 Sudoeste 26 Sudoeste 0 -- -- 22
2019-08-29 17:00:00 34.3 15 Sudoeste 33 Sudoeste 0 -- -- 21
2019-08-29 16:00:00 -- 12 Sudoeste 29 Sudoeste -- -- -- --
2019-08-29 15:00:00 33.5 13 Sur 27 Sur 0 -- -- 23
2019-08-29 14:00:00 32.4 12 Sur 24 Sur 0 -- -- 23
2019-08-29 13:00:00 31.2 13 Sudeste 23 Sudoeste 0 -- -- 29
2019-08-29 12:00:00 29 9 Sudoeste 18 Sur 0 -- -- 38
2019-08-29 11:00:00 26.5 4 Sur 8 Este 0 -- -- 42
2019-08-29 10:00:00 24 3 Sudeste 5 Sudeste 0 -- -- 49
2019-08-29 09:00:00 19.9 2 Nordeste 6 Norte 0 -- -- 59
2019-08-29 08:00:00 18.1 5 Norte 7 Oeste 0 -- -- 62
2019-08-29 07:00:00 19.4 3 Norte 11 Norte 0 -- -- 58
2019-08-29 06:00:00 19.6 8 Norte 10 Norte 0 -- -- 58
2019-08-29 05:00:00 19.8 0 Calma 4 Sudoeste 0 -- -- 54
2019-08-29 04:00:00 20.8 0 Calma 8 Norte 0 -- -- 50
2019-08-29 03:00:00 20.5 3 Norte 12 Norte 0 -- -- 53
2019-08-29 02:00:00 21.1 8 Norte 11 Norte 0 -- -- 50
2019-08-29 01:00:00 21.6 2 Sur 8 Norte 0 -- -- 45
2019-08-29 00:00:00 21.8 6 Norte 14 Sudoeste 0 -- -- 45
2019-08-28 23:00:00 23.7 9 Norte 13 Norte 0 -- -- 41
2019-08-28 22:00:00 25.5 9 Norte 12 Norte 0 -- -- 36
2019-08-28 21:00:00 30.2 5 Sur 16 Sudeste 0 -- -- 29
2019-08-28 20:00:00 32.2 5 Sudoeste 17 Sur 0 -- -- 26
2019-08-28 19:00:00 32.8 7 Sur 20 Oeste 0 -- -- 26
2019-08-28 18:00:00 32.5 10 Sur 21 Sur 0 -- -- 26
2019-08-28 17:00:00 32.1 8 Sudeste 24 Sur 0 -- -- 26
2019-08-28 16:00:00 32.2 8 Sur 20 Sudoeste 0 -- -- 26
2019-08-28 15:00:00 31.1 13 Sur 28 Sur 0 -- -- 30
2019-08-28 14:00:00 30.2 12 Sudeste 25 Sudeste 0 -- -- 34
2019-08-28 13:00:00 29.4 11 Sudoeste 22 Sudoeste 0 -- -- 37
2019-08-28 12:00:00 27.6 8 Sur 14 Sur 0 -- -- 47
2019-08-28 11:00:00 26 6 Sur 10 Sur 0 -- -- 51
2019-08-28 10:00:00 23.9 4 Sur 7 Sur 0 -- -- 59
2019-08-28 09:00:00 20.1 2 Nordeste 6 Norte 0 -- -- 72
2019-08-28 08:00:00 17.8 5 Norte 8 Norte 0 -- -- 78
2019-08-28 07:00:00 17.6 0 Calma 8 Norte 0 -- -- 79
2019-08-28 06:00:00 18.1 4 Norte 7 Norte 0 -- -- 78
2019-08-28 05:00:00 19.3 4 Oeste 6 Noroeste 0 -- -- 73
2019-08-28 04:00:00 19.7 2 Nordeste 10 Nordeste 0 -- -- 71
2019-08-28 03:00:00 21.7 3 Sudoeste 5 Noroeste 0 -- -- 64
2019-08-28 02:00:00 22.9 5 Norte 19 Norte 0 -- -- 61
2019-08-28 01:00:00 23.2 6 Norte 14 Norte 0 -- -- 57
2019-08-28 00:00:00 23.2 0 Calma 15 Norte 0 -- -- 54
2019-08-27 23:00:00 22.9 9 Norte 11 Norte 0 -- -- 55
2019-08-27 22:00:00 24.5 6 Norte 12 Norte 0 -- -- 51
2019-08-27 21:00:00 26.4 6 Norte 8 Norte 0 -- -- 46
2019-08-27 20:00:00 28.9 5 Oeste 13 Oeste 0 -- -- 39
2019-08-27 19:00:00 29 4 Este 9 Este 0 -- -- 38
2019-08-27 18:00:00 28.6 6 Nordeste 17 Este 0 -- -- 39
2019-08-27 17:00:00 29 7 Sur 19 Sudoeste 0 -- -- 38
2019-08-27 16:00:00 29.1 12 Sur 21 Sudoeste 0 -- -- 39
2019-08-27 15:00:00 28 9 Sur 24 Oeste 0 -- -- 41
2019-08-27 14:00:00 28 6 Sudoeste 19 Sudeste 0 -- -- 43
2019-08-27 13:00:00 26.2 8 Sur 20 Sudoeste 0 -- -- 47
2019-08-27 12:00:00 24.8 5 Sudoeste 14 Sur 0 -- -- 50
2019-08-27 11:00:00 23.6 5 Sur 11 Sur 0 -- -- 53
2019-08-27 10:00:00 21.5 2 Sudeste 6 Norte 0 -- -- 64
2019-08-27 09:00:00 17.9 4 Norte 12 Norte 0 -- -- 78
2019-08-27 08:00:00 15.6 7 Norte 10 Norte 0 -- -- 85
2019-08-27 07:00:00 16.8 4 Noroeste 13 Oeste 0 -- -- 80
2019-08-27 06:00:00 16.6 5 Noroeste 7 Noroeste 0 -- -- 82
2019-08-27 05:00:00 18.3 4 Oeste 6 Oeste 0 -- -- 75
2019-08-27 04:00:00 19.7 3 Norte 15 Norte 0 -- -- 69
2019-08-27 03:00:00 20.7 8 Nordeste 24 Nordeste 0 -- -- 65
2019-08-27 02:00:00 21.2 4 Norte 19 Norte 0 -- -- 63
2019-08-27 01:00:00 21.6 5 Norte 21 Noroeste 0 -- -- 59
2019-08-27 00:00:00 21.4 8 Este 21 Norte 0 -- -- 59
2019-08-26 23:00:00 22.2 5 Nordeste 19 Norte 0 -- -- 57
2019-08-26 22:00:00 22.9 7 Noroeste 18 Noroeste 0 -- -- 57
2019-08-26 21:00:00 23.7 4 Sudeste 20 Nordeste 0 -- -- 56
2019-08-26 20:00:00 24.3 8 Noroeste 29 Noroeste 0 -- -- 49
2019-08-26 19:00:00 26.3 16 Noroeste 34 Noroeste 0 -- -- 40
2019-08-26 18:00:00 27.9 14 Oeste 26 Oeste 0 -- -- 36
2019-08-26 17:00:00 27.4 10 Sudoeste 18 Sur 0 -- -- 39
2019-08-26 16:00:00 26.1 3 Este 10 Sur 0 -- -- 45
2019-08-26 15:00:00 24.2 3 Sudeste 9 Sudeste 0 -- -- 48
2019-08-26 14:00:00 23.4 5 Sudeste 18 Sudoeste 0 -- -- 54
2019-08-26 13:00:00 20.2 12 Sudoeste 23 Sudoeste 0 -- -- 67
2019-08-26 12:00:00 19.8 18 Este 38 Nordeste 0.2 -- -- 61
2019-08-26 11:00:00 17.1 9 Nordeste 13 Nordeste 0 -- -- 93
2019-08-26 10:00:00 16.4 5 Noroeste 17 Sudeste 1.8 -- -- 92
2019-08-26 09:00:00 17.3 6 Sur 21 Oeste 0.8 -- -- 81
2019-08-26 08:00:00 18.5 14 Oeste 28 Oeste 0 -- -- 77
2019-08-26 07:00:00 19.8 9 Oeste 50 Norte 0.2 -- -- 69
2019-08-26 06:00:00 19.1 27 Nordeste 50 Nordeste 2.4 -- -- 71
2019-08-26 05:00:00 20.6 11 Norte 37 Nordeste 0 -- -- 67
2019-08-26 04:00:00 20.7 16 Norte 34 Norte 0 -- -- 68
2019-08-26 03:00:00 20.6 17 Norte 34 Norte 0 -- -- 69
2019-08-26 02:00:00 21.4 5 Norte 33 Nordeste 0 -- -- 61
2019-08-26 01:00:00 22 12 Nordeste 38 Nordeste 0 -- -- 58
2019-08-26 00:00:00 22.4 34 Nordeste 65 Nordeste 0 -- -- 56
2019-08-25 23:00:00 22.8 36 Nordeste 62 Nordeste 0 -- -- 54
2019-08-25 22:00:00 23.8 24 Norte 53 Norte 0 -- -- 52
2019-08-25 21:00:00 25.9 24 Nordeste 57 Nordeste 0 -- -- 45
2019-08-25 20:00:00 30.4 7 Oeste 23 Sudoeste 0 -- -- 31
2019-08-25 19:00:00 31.8 14 Oeste 26 Oeste 0 -- -- 29
2019-08-25 18:00:00 32.9 5 Sudoeste 26 Sudoeste 0 -- -- 27
2019-08-25 17:00:00 30.8 15 Sudoeste 30 Sudoeste 0 -- -- 32
2019-08-25 16:00:00 32.6 10 Sur 23 Sudeste 0 -- -- 28
2019-08-25 15:00:00 32.5 11 Sur 27 Sudeste 0 -- -- 28
2019-08-25 14:00:00 31.7 9 Sur 28 Sudeste 0 -- -- 30
2019-08-25 13:00:00 29.3 14 Sudeste 30 Sudeste 0 -- -- 32
2019-08-25 12:00:00 29.6 12 Sudeste 25 Este 0 -- -- 29
2019-08-25 11:00:00 28.7 11 Sudeste 21 Sudeste 0 -- -- 32
2019-08-25 10:00:00 24.7 9 Sur 12 Sur 0 -- -- 44
2019-08-25 09:00:00 23.4 3 Sudoeste 10 Sudoeste 0 -- -- 48
2019-08-25 08:00:00 22.4 9 Sudoeste 12 Sudoeste 0 -- -- 47
2019-08-25 07:00:00 23.3 4 Norte 8 Norte 0 -- -- 45
2019-08-25 06:00:00 25 4 Oeste 14 Norte 0 -- -- 41
2019-08-25 05:00:00 27 5 Norte 24 Nordeste 0 -- -- 37
2019-08-25 04:00:00 27.2 11 Nordeste 30 Nordeste 0 -- -- 36
2019-08-25 03:00:00 27.2 9 Norte 26 Norte 0 -- -- 34
2019-08-25 02:00:00 26.6 13 Norte 33 Nordeste 0 -- -- 40
2019-08-25 01:00:00 26.9 5 Nordeste 24 Norte 0 -- -- 41
2019-08-25 00:00:00 27.1 13 Nordeste 32 Norte 0 -- -- 40
2019-08-24 23:00:00 28.6 15 Norte 35 Nordeste 0 -- -- 37
2019-08-24 22:00:00 29.3 7 Noroeste 15 Noroeste 0 -- -- 30
2019-08-24 21:00:00 31 6 Norte 17 Nordeste 0 -- -- 23
2019-08-24 20:00:00 34.2 6 Este 22 Este 0 -- -- 18
2019-08-24 19:00:00 35.1 8 Este 32 Este 0 -- -- 18
2019-08-24 18:00:00 36.2 9 Sur 26 Este 0 -- -- 17
2019-08-24 17:00:00 35.6 7 Este 24 Sudeste 0 -- -- 18
2019-08-24 16:00:00 35.9 11 Sudeste 22 Sudeste 0 -- -- 18
2019-08-24 15:00:00 35.3 11 Sur 24 Sur 0 -- -- 18
2019-08-24 14:00:00 34.5 12 Sudeste 26 Este 0 -- -- 19
2019-08-24 13:00:00 33.6 11 Sudeste 23 Este 0 -- -- 20
2019-08-24 12:00:00 32.1 10 Sudeste 22 Sudeste 0 -- -- 21
2019-08-24 11:00:00 29.2 5 Oeste 14 Sur 0 -- -- 30
2019-08-24 10:00:00 26.5 4 Sur 8 Noroeste 0 -- -- 39
2019-08-24 09:00:00 22.7 5 Noroeste 8 Noroeste 0 -- -- 46
2019-08-24 08:00:00 22.5 3 Sudeste 10 Norte 0 -- -- 44
2019-08-24 07:00:00 22.7 7 Oeste 10 Sur 0 -- -- 44
2019-08-24 06:00:00 25.4 3 Este 8 Este 0 -- -- 38
2019-08-24 05:00:00 26.9 5 Sudeste 25 Norte 0 -- -- 35
2019-08-24 04:00:00 26.4 3 Noroeste 19 Este 0 -- -- 35
2019-08-24 03:00:00 27.1 3 Oeste 18 Norte 0 -- -- 36
2019-08-24 02:00:00 27.5 7 Nordeste 17 Norte 0 -- -- 36
2019-08-24 01:00:00 28.2 3 Nordeste 28 Norte 0 -- -- 36
2019-08-24 00:00:00 28 14 Norte 27 Norte 0 -- -- 38
2019-08-23 23:00:00 26.2 6 Norte 15 Norte 0 -- -- 33
2019-08-23 22:00:00 27.4 11 Norte 13 Norte 0 -- -- 32
2019-08-23 21:00:00 30.1 10 Norte 12 Norte 0 -- -- 29
2019-08-23 20:00:00 34.1 9 Oeste 18 Sudoeste 0 -- -- 22
2019-08-23 19:00:00 35.5 4 Sur 22 Sur 0 -- -- 20
2019-08-23 18:00:00 35.1 13 Sudoeste 20 Oeste 0 -- -- 20
2019-08-23 17:00:00 34.8 5 Este 24 Sudeste 0 -- -- 20
2019-08-23 16:00:00 34.5 8 Sur 23 Sur 0 -- -- 22
2019-08-23 15:00:00 33.8 11 Sur 25 Sudeste 0 -- -- 24
2019-08-23 14:00:00 32.3 14 Sudeste 27 Sudeste 0 -- -- 28
2019-08-23 13:00:00 31.1 17 Sur 30 Sudeste 0 -- -- 31
2019-08-23 12:00:00 30.1 15 Sudeste 27 Sudeste 0 -- -- 32
2019-08-23 11:00:00 29.5 14 Sudeste 24 Sudeste 0 -- -- 30
2019-08-23 10:00:00 26.5 3 Noroeste 10 Sudoeste 0 -- -- 32
2019-08-23 09:00:00 23.5 3 Oeste 10 Este 0 -- -- 33
2019-08-23 08:00:00 23.1 3 Sudoeste 8 Sudoeste 0 -- -- 30
2019-08-23 07:00:00 22.5 5 Norte 12 Norte 0 -- -- 34
2019-08-23 06:00:00 20.8 3 Norte 9 Oeste 0 -- -- 43
2019-08-23 05:00:00 22.1 3 Oeste 13 Norte 0 -- -- 41
2019-08-23 04:00:00 23.6 10 Norte 14 Norte 0 -- -- 40
2019-08-23 03:00:00 22.6 5 Sudoeste 12 Norte 0 -- -- 38
2019-08-23 02:00:00 25.2 5 Norte 10 Norte 0 -- -- 31
2019-08-23 01:00:00 26.4 0 Calma 5 Noroeste 0 -- -- 29
2019-08-23 00:00:00 26.3 3 Noroeste 13 Noroeste 0 -- -- 32